createdAt,value
2022-12-01T00:02:10.356Z,21.53
2022-12-01T00:05:13.384Z,21.90
2022-12-01T00:08:16.341Z,22.00
2022-12-01T00:11:18.320Z,22.83
2022-12-01T00:14:22.688Z,23.97
2022-12-01T00:17:25.721Z,21.47
2022-12-01T00:20:29.040Z,22.73
2022-12-01T00:23:32.001Z,21.23
2022-12-01T00:26:34.904Z,21.77
2022-12-01T00:29:39.234Z,23.20
2022-12-01T00:32:42.186Z,21.63
2022-12-01T00:35:45.163Z,23.40
2022-12-01T00:38:48.323Z,21.80
2022-12-01T00:41:51.305Z,22.53
2022-12-01T00:44:55.603Z,22.00
2022-12-01T00:47:58.559Z,22.60
2022-12-01T00:51:01.589Z,22.47
2022-12-01T00:54:04.693Z,21.43
2022-12-01T00:57:08.193Z,23.43
2022-12-01T01:00:14.731Z,22.07
2022-12-01T01:03:17.724Z,23.00
2022-12-01T01:06:20.689Z,21.23
2022-12-01T01:09:23.883Z,21.67
2022-12-01T01:12:27.931Z,21.53
2022-12-01T01:15:32.217Z,23.90
2022-12-01T01:18:35.563Z,23.37
2022-12-01T01:21:39.451Z,22.80
2022-12-01T01:24:42.438Z,22.80
2022-12-01T01:27:45.364Z,22.67
2022-12-01T01:30:49.675Z,22.60
2022-12-01T01:33:53.047Z,22.57
2022-12-01T01:36:55.989Z,22.43
2022-12-01T01:39:58.946Z,24.27
2022-12-01T01:43:01.908Z,22.77
2022-12-01T01:46:06.606Z,22.20
2022-12-01T01:49:12.666Z,20.77
2022-12-01T01:52:16.611Z,21.90
2022-12-01T01:55:20.421Z,22.17
2022-12-01T01:58:24.244Z,23.43
2022-12-01T02:01:28.542Z,23.27
2022-12-01T02:04:31.694Z,22.37
2022-12-01T02:07:34.768Z,23.67
2022-12-01T02:10:51.568Z,21.50
2022-12-01T02:14:03.064Z,22.87
2022-12-01T02:17:18.637Z,23.00
2022-12-01T02:20:45.846Z,24.10
2022-12-01T02:24:24.091Z,22.10
2022-12-01T02:27:43.425Z,23.30
2022-12-01T02:30:50.554Z,23.00
2022-12-01T02:33:57.453Z,22.00
2022-12-01T02:37:09.372Z,21.83
2022-12-01T02:40:20.115Z,23.33
2022-12-01T02:43:28.293Z,22.63
2022-12-01T02:46:37.948Z,22.97
2022-12-01T02:49:46.271Z,23.60
2022-12-01T02:53:06.309Z,22.97
2022-12-01T02:56:15.867Z,24.20
2022-12-01T02:59:18.884Z,22.97
2022-12-01T03:02:33.997Z,24.50
2022-12-01T03:05:43.731Z,23.67
2022-12-01T03:08:52.887Z,23.53
2022-12-01T03:12:04.337Z,24.23
2022-12-01T03:15:14.102Z,23.87
2022-12-01T03:18:28.639Z,22.87
2022-12-01T03:21:36.695Z,22.97
2022-12-01T03:24:41.827Z,25.93
2022-12-01T03:28:19.169Z,24.37
2022-12-01T03:31:20.047Z,23.60
2022-12-01T03:34:30.512Z,24.50
2022-12-01T03:37:39.943Z,24.57
2022-12-01T03:40:44.244Z,24.70
2022-12-01T03:43:53.010Z,25.57
2022-12-01T03:46:59.482Z,24.10
2022-12-01T03:50:05.218Z,24.97
2022-12-01T03:53:14.025Z,21.87
2022-12-01T03:56:19.277Z,24.67
2022-12-01T03:59:24.796Z,25.47
2022-12-01T04:02:28.796Z,22.77
2022-12-01T04:05:34.285Z,25.00
2022-12-01T04:08:37.837Z,24.20
2022-12-01T04:11:58.363Z,25.70
2022-12-01T04:15:03.648Z,25.77
2022-12-01T04:18:06.852Z,24.00
2022-12-01T04:21:11.134Z,24.37
2022-12-01T04:24:14.346Z,25.73
2022-12-01T04:27:17.329Z,24.70
2022-12-01T04:30:20.332Z,24.07
2022-12-01T04:33:23.294Z,23.43
2022-12-01T04:36:30.490Z,23.80
2022-12-01T04:39:33.425Z,23.50
2022-12-01T04:42:36.700Z,26.73
2022-12-01T04:45:39.644Z,24.67
2022-12-01T04:48:43.221Z,22.60
2022-12-01T04:51:47.523Z,23.87
2022-12-01T04:54:50.448Z,24.60
2022-12-01T04:57:53.463Z,23.97
2022-12-01T05:00:56.460Z,22.30
2022-12-01T05:03:59.460Z,23.37
2022-12-01T05:07:03.737Z,23.07
2022-12-01T05:10:08.118Z,22.57
2022-12-01T05:13:11.071Z,23.33
2022-12-01T05:16:15.781Z,24.40
2022-12-01T05:19:36.239Z,23.53
2022-12-01T05:23:04.458Z,25.97
2022-12-01T05:26:04.809Z,23.47
2022-12-01T05:29:07.984Z,24.50
2022-12-01T05:32:10.918Z,24.77
2022-12-01T05:35:13.844Z,24.50
2022-12-01T05:38:18.829Z,23.90
2022-12-01T05:41:22.260Z,24.67
2022-12-01T05:44:25.177Z,24.07
2022-12-01T05:47:28.132Z,23.80
2022-12-01T05:50:32.437Z,24.17
2022-12-01T05:53:36.733Z,25.43
2022-12-01T05:56:39.685Z,24.90
2022-12-01T05:59:42.601Z,22.67
2022-12-01T06:02:45.849Z,24.17
2022-12-01T06:05:48.822Z,23.70
2022-12-01T06:08:53.108Z,22.47
2022-12-01T06:11:56.056Z,23.83
2022-12-01T06:14:58.987Z,22.97
2022-12-01T06:18:01.962Z,24.03
2022-12-01T06:21:06.593Z,21.60
2022-12-01T06:24:11.457Z,23.60
2022-12-01T06:27:14.442Z,23.83
2022-12-01T06:30:17.730Z,24.73
2022-12-01T06:33:20.723Z,22.27
2022-12-01T06:36:23.639Z,23.10
2022-12-01T06:39:27.920Z,22.07
2022-12-01T06:42:31.569Z,22.70
2022-12-01T06:45:34.619Z,22.13
2022-12-01T06:48:37.661Z,23.30
2022-12-01T06:51:40.716Z,23.63
2022-12-01T06:54:44.978Z,22.13
2022-12-01T06:57:48.297Z,22.37
2022-12-01T07:00:52.421Z,22.57
2022-12-01T07:03:55.765Z,22.20
2022-12-01T07:06:58.683Z,25.93
2022-12-01T07:10:02.942Z,24.90
2022-12-01T07:13:05.967Z,23.33
2022-12-01T07:16:10.002Z,22.50
2022-12-01T07:19:13.080Z,23.40
2022-12-01T07:22:16.816Z,24.07
2022-12-01T07:25:21.095Z,24.93
2022-12-01T07:28:24.072Z,23.23
2022-12-01T07:31:27.134Z,24.00
2022-12-01T07:34:30.155Z,25.10
2022-12-01T07:37:33.100Z,21.57
2022-12-01T07:40:37.410Z,22.63
2022-12-01T07:43:40.684Z,23.10
2022-12-01T07:46:43.697Z,24.43
2022-12-01T07:49:47.003Z,22.43
2022-12-01T07:52:50.701Z,22.47
2022-12-01T07:55:54.995Z,22.03
2022-12-01T07:58:57.987Z,22.80
2022-12-01T08:02:01.051Z,20.97
2022-12-01T08:05:04.359Z,22.03
2022-12-01T08:08:07.491Z,21.83
2022-12-01T08:11:15.067Z,21.10
2022-12-01T08:14:18.015Z,20.67
2022-12-01T08:17:21.278Z,21.03
2022-12-01T08:20:24.353Z,20.87
2022-12-01T08:23:27.418Z,21.53
2022-12-01T08:26:32.077Z,20.97
2022-12-01T08:29:36.483Z,20.87
2022-12-01T08:32:39.415Z,19.40
2022-12-01T08:35:42.390Z,21.50
2022-12-01T08:38:46.116Z,20.70
2022-12-01T08:41:50.383Z,21.87
2022-12-01T08:44:53.380Z,20.43
2022-12-01T08:47:58.748Z,18.53
2022-12-01T08:51:06.797Z,20.87
2022-12-01T08:54:12.642Z,20.50
2022-12-01T08:57:16.927Z,20.97
2022-12-01T09:00:20.149Z,19.90
2022-12-01T09:03:23.156Z,19.20
2022-12-01T09:06:26.126Z,19.30
2022-12-01T09:09:30.152Z,20.67
2022-12-01T09:12:34.450Z,20.77
2022-12-01T09:15:37.444Z,19.40
2022-12-01T09:18:40.756Z,18.87
2022-12-01T09:21:45.176Z,17.23
2022-12-01T09:24:48.140Z,19.33
2022-12-01T09:27:52.516Z,19.27
2022-12-01T09:30:55.480Z,18.43
2022-12-01T09:33:59.713Z,19.40
2022-12-01T09:37:02.653Z,19.97
2022-12-01T09:40:06.810Z,19.80
2022-12-01T09:43:18.639Z,20.63
2022-12-01T09:46:25.571Z,20.43
2022-12-01T09:49:43.451Z,19.70
2022-12-01T09:52:50.185Z,20.57
2022-12-01T09:55:54.566Z,21.10
2022-12-01T09:59:02.820Z,20.43
2022-12-01T10:02:38.526Z,19.67
2022-12-01T10:06:18.634Z,19.07
2022-12-01T10:09:21.743Z,19.47
2022-12-01T10:12:27.765Z,20.63
2022-12-01T10:15:44.096Z,19.90
2022-12-01T10:18:59.415Z,18.70
2022-12-01T10:22:34.708Z,19.23
2022-12-01T10:25:44.647Z,18.27
2022-12-01T10:29:02.144Z,20.33
2022-12-01T10:32:13.574Z,19.73
2022-12-01T10:35:18.326Z,18.20
2022-12-01T10:38:27.430Z,19.33
2022-12-01T10:41:34.697Z,19.60
2022-12-01T10:44:37.881Z,20.83
2022-12-01T10:48:08.990Z,17.70
2022-12-01T10:51:17.570Z,17.27
2022-12-01T10:54:21.585Z,16.13
2022-12-01T10:57:25.084Z,15.37
2022-12-01T11:03:58.981Z,13.90
2022-12-01T11:07:02.268Z,13.43
2022-12-01T11:10:17.545Z,12.87
2022-12-01T11:13:24.921Z,12.43
2022-12-01T11:16:45.166Z,12.73
2022-12-01T11:19:50.108Z,13.33
2022-12-01T11:22:53.288Z,13.57
2022-12-01T11:26:13.467Z,13.93
2022-12-01T11:29:28.522Z,12.77
2022-12-01T11:32:34.698Z,13.33
2022-12-01T11:35:39.345Z,13.80
2022-12-01T11:38:42.430Z,14.63
2022-12-01T11:41:45.432Z,13.83
2022-12-01T11:44:52.132Z,14.07
2022-12-01T11:48:05.456Z,14.00
2022-12-01T11:51:13.059Z,13.57
2022-12-01T11:54:19.305Z,14.47
2022-12-01T11:57:37.405Z,13.80
2022-12-01T12:00:46.836Z,13.53
2022-12-01T12:03:59.592Z,15.23
2022-12-01T12:07:11.282Z,14.77
2022-12-01T12:10:31.196Z,14.13
2022-12-01T12:13:51.561Z,13.33
2022-12-01T12:17:14.309Z,13.03
2022-12-01T12:20:37.263Z,13.13
2022-12-01T12:24:19.285Z,12.03
2022-12-01T12:27:33.143Z,10.60
2022-12-01T12:30:43.584Z,12.20
2022-12-01T12:34:12.921Z,10.67
2022-12-01T12:37:22.972Z,11.53
2022-12-01T12:40:53.259Z,12.87
2022-12-01T12:44:14.252Z,12.07
2022-12-01T12:47:28.517Z,12.40
2022-12-01T12:50:41.138Z,11.97
2022-12-01T12:53:50.524Z,11.90
2022-12-01T12:57:01.567Z,12.10
2022-12-01T13:00:08.786Z,12.70
2022-12-01T13:03:18.549Z,11.40
2022-12-01T13:06:27.852Z,10.23
2022-12-01T13:09:36.666Z,12.83
2022-12-01T13:12:50.165Z,12.37
2022-12-01T13:15:56.045Z,11.20
2022-12-01T13:19:04.923Z,11.97
2022-12-01T13:22:10.642Z,11.23
2022-12-01T13:25:16.418Z,10.93
2022-12-01T13:28:23.694Z,10.53
2022-12-01T13:31:26.822Z,9.93
2022-12-01T13:34:39.076Z,9.87
2022-12-01T13:37:42.054Z,9.47
2022-12-01T13:40:45.100Z,9.17
2022-12-01T13:43:55.477Z,9.10
2022-12-01T13:47:02.374Z,8.40
2022-12-01T13:50:55.005Z,8.60
2022-12-01T13:54:28.772Z,8.10
2022-12-01T13:57:33.263Z,9.30
2022-12-01T14:00:38.025Z,8.93
2022-12-01T14:03:42.284Z,8.90
2022-12-01T14:06:49.417Z,7.80
2022-12-01T14:09:54.351Z,7.83
2022-12-01T14:13:01.264Z,7.70
2022-12-01T14:16:06.394Z,8.37
2022-12-01T14:19:31.006Z,8.43
2022-12-01T14:22:37.016Z,8.53
2022-12-01T14:25:41.650Z,8.10
2022-12-01T14:29:18.342Z,8.80
2022-12-01T14:32:25.482Z,8.37
2022-12-01T14:35:28.590Z,8.77
2022-12-01T14:38:33.906Z,8.43
2022-12-01T14:41:44.608Z,9.87
2022-12-01T14:44:49.734Z,8.13
2022-12-01T14:48:02.892Z,8.97
2022-12-01T14:51:27.046Z,7.60
2022-12-01T14:54:33.535Z,8.17
2022-12-01T14:57:41.167Z,8.67
2022-12-01T15:00:57.286Z,8.77
2022-12-01T15:04:04.155Z,8.80
2022-12-01T15:07:08.029Z,8.67
2022-12-01T15:10:18.438Z,7.83
2022-12-01T15:13:24.439Z,8.10
2022-12-01T15:16:31.950Z,7.90
2022-12-01T15:19:39.277Z,9.47
2022-12-01T15:22:42.343Z,8.17
2022-12-01T15:25:47.282Z,8.10
2022-12-01T15:28:50.555Z,8.07
2022-12-01T15:31:55.996Z,8.43
2022-12-01T15:35:03.564Z,9.90
2022-12-01T15:38:07.547Z,8.13
2022-12-01T15:41:28.955Z,9.10
2022-12-01T15:44:35.054Z,8.50
2022-12-01T15:47:47.071Z,9.40
2022-12-01T15:51:02.853Z,8.63
2022-12-01T15:54:06.133Z,8.97
2022-12-01T15:57:09.197Z,7.90
2022-12-01T16:00:20.031Z,7.70
2022-12-01T16:03:23.048Z,7.90
2022-12-01T16:06:31.259Z,7.83
2022-12-01T16:09:37.009Z,7.53
2022-12-01T16:12:39.974Z,7.87
2022-12-01T16:15:44.176Z,7.57
2022-12-01T16:18:54.545Z,8.60
2022-12-01T16:22:02.846Z,7.97
2022-12-01T16:25:06.433Z,8.50
2022-12-01T16:28:23.066Z,8.33
2022-12-01T16:31:27.396Z,8.97
2022-12-01T16:34:45.987Z,9.10
2022-12-01T16:37:51.128Z,10.43
2022-12-01T16:40:56.393Z,10.93
2022-12-01T16:44:27.159Z,10.60
2022-12-01T16:47:24.271Z,11.10
2022-12-01T16:50:27.290Z,10.47
2022-12-01T16:53:32.018Z,11.33
2022-12-01T16:56:35.173Z,10.60
2022-12-01T16:59:38.230Z,11.43
2022-12-01T17:02:41.255Z,12.10
2022-12-01T17:05:44.277Z,10.50
2022-12-01T17:08:48.906Z,12.60
2022-12-01T17:11:51.876Z,10.63
2022-12-01T17:14:54.826Z,11.83
2022-12-01T17:17:57.786Z,10.67
2022-12-01T17:21:02.337Z,13.43
2022-12-01T17:24:07.995Z,12.90
2022-12-01T17:27:11.002Z,11.43
2022-12-01T17:30:14.429Z,11.67
2022-12-01T17:33:17.401Z,12.13
2022-12-01T17:36:20.462Z,13.50
2022-12-01T17:39:24.893Z,12.17
2022-12-01T17:42:27.953Z,11.47
2022-12-01T17:45:30.958Z,12.00
2022-12-01T17:48:37.252Z,12.13
2022-12-01T17:51:40.948Z,10.87
2022-12-01T17:54:45.267Z,10.77
2022-12-01T17:57:48.375Z,10.13
2022-12-01T18:00:52.079Z,11.00
2022-12-01T18:03:55.026Z,11.10
2022-12-01T18:06:58.299Z,11.30
2022-12-01T18:10:02.652Z,11.40
2022-12-01T18:13:05.687Z,11.37
2022-12-01T18:16:10.039Z,11.63
2022-12-01T18:19:13.738Z,10.10
2022-12-01T18:22:16.689Z,12.53
2022-12-01T18:25:21.010Z,11.93
2022-12-01T18:28:23.978Z,12.90
2022-12-01T18:31:27.859Z,12.23
2022-12-01T18:34:31.164Z,11.07
2022-12-01T18:37:35.536Z,11.63
2022-12-01T18:40:40.257Z,10.97
2022-12-01T18:43:43.984Z,11.43
2022-12-01T18:46:47.127Z,10.93
2022-12-01T18:49:50.154Z,10.63
2022-12-01T18:52:53.173Z,10.77
2022-12-01T18:55:57.734Z,10.50
2022-12-01T18:59:02.331Z,11.37
2022-12-01T19:02:05.484Z,11.60
2022-12-01T19:05:09.054Z,11.60
2022-12-01T19:08:12.092Z,12.30
2022-12-01T19:11:16.800Z,11.00
2022-12-01T19:14:20.135Z,11.40
2022-12-01T19:17:23.153Z,11.07
2022-12-01T19:20:26.166Z,10.63
2022-12-01T19:23:29.186Z,11.40
2022-12-01T19:26:33.494Z,10.83
2022-12-01T19:29:36.487Z,12.03
2022-12-01T19:32:40.140Z,10.13
2022-12-01T19:35:43.412Z,9.40
2022-12-01T19:38:46.938Z,11.43
2022-12-01T19:41:51.272Z,9.33
2022-12-01T19:44:54.382Z,10.53
2022-12-01T19:47:57.354Z,10.13
2022-12-01T19:51:00.751Z,10.67
2022-12-01T19:54:04.445Z,11.80
2022-12-01T19:57:08.774Z,10.17
2022-12-01T20:00:13.049Z,10.63
2022-12-01T20:03:16.012Z,11.43
2022-12-01T20:06:21.049Z,10.17
2022-12-01T20:09:24.081Z,10.77
2022-12-01T20:12:28.433Z,10.90
2022-12-01T20:15:33.969Z,10.70
2022-12-01T20:18:37.570Z,10.87
2022-12-01T20:21:43.053Z,12.17
2022-12-01T20:24:47.273Z,11.67
2022-12-01T20:27:51.735Z,12.43
2022-12-01T20:30:54.856Z,11.63
2022-12-01T20:34:00.129Z,11.93
2022-12-01T20:37:04.397Z,11.80
2022-12-01T20:40:08.662Z,10.73
2022-12-01T20:43:12.984Z,11.53
2022-12-01T20:46:16.514Z,11.70
2022-12-01T20:49:19.984Z,12.27
2022-12-01T20:52:22.988Z,12.13
2022-12-01T20:55:25.951Z,12.60
2022-12-01T20:58:33.257Z,12.03
2022-12-01T21:01:40.171Z,11.37
2022-12-01T21:04:43.321Z,14.03
2022-12-01T21:07:46.522Z,13.63
2022-12-01T21:10:49.509Z,13.57
2022-12-01T21:13:53.962Z,12.87
2022-12-01T21:17:01.616Z,13.00
2022-12-01T21:20:18.011Z,12.97
2022-12-01T21:23:20.998Z,13.03
2022-12-01T21:26:23.996Z,12.37
2022-12-01T21:29:29.953Z,11.23
2022-12-01T21:32:41.158Z,11.73
2022-12-01T21:35:46.679Z,10.40
2022-12-01T21:38:54.268Z,11.67
2022-12-01T21:42:07.821Z,11.27
2022-12-01T21:45:19.610Z,11.43
2022-12-01T21:48:23.978Z,12.50
2022-12-01T21:51:27.436Z,12.10
2022-12-01T21:54:30.871Z,11.83
2022-12-01T21:57:43.989Z,12.57
2022-12-01T22:00:48.510Z,12.70
2022-12-01T22:03:51.587Z,11.57
2022-12-01T22:06:56.068Z,13.33
2022-12-01T22:10:01.555Z,12.07
2022-12-01T22:13:10.642Z,12.53
2022-12-01T22:16:21.504Z,13.53
2022-12-01T22:19:31.279Z,12.37
2022-12-01T22:22:35.729Z,12.67
2022-12-01T22:25:38.707Z,13.00
2022-12-01T22:28:41.710Z,11.77
2022-12-01T22:31:45.997Z,11.03
2022-12-01T22:34:53.460Z,11.30
2022-12-01T22:38:10.943Z,11.37
2022-12-01T22:41:15.781Z,10.73
2022-12-01T22:44:19.350Z,11.00
2022-12-01T22:47:23.777Z,11.40
2022-12-01T22:50:29.628Z,11.27
2022-12-01T22:53:32.626Z,10.70
2022-12-01T22:56:38.928Z,11.50
2022-12-01T22:59:44.020Z,11.37
2022-12-01T23:02:50.441Z,10.77
2022-12-01T23:05:58.858Z,11.43
2022-12-01T23:09:02.757Z,12.03
2022-12-01T23:12:30.799Z,12.53
2022-12-01T23:15:36.368Z,11.97
2022-12-01T23:18:40.725Z,10.53
2022-12-01T23:21:43.673Z,11.10
2022-12-01T23:24:47.047Z,12.87
2022-12-01T23:27:52.000Z,11.27
2022-12-01T23:30:59.490Z,11.23
2022-12-01T23:34:03.850Z,9.17
2022-12-01T23:37:19.982Z,11.63
2022-12-01T23:40:32.198Z,9.83
2022-12-01T23:43:39.988Z,10.83
2022-12-01T23:46:43.388Z,10.73
2022-12-01T23:49:49.470Z,12.17
2022-12-01T23:52:52.816Z,11.50
2022-12-01T23:55:57.125Z,11.87
2022-12-01T23:59:02.223Z,10.47
